Sand Creek, Michigan
Current Conditions -  °F | °C
As of 2:53 AM on Saturday 20 Dec 2014 (Local Time) from KADG Reporting Station
Overcast Overcast  
Wind Chill: 29°   Ceiling: 2000
Heat Index: 29°   Visibility: 10mi
Dew Point: 24°   Wind: 0mph
Humidity: 82%   Direction: NA
Pressure: 30.28"   Gusts: NA
Location:  41.83°N, 84.1°W
Report Text: KADG 200753Z AUTO 00000KT 10SM OVC020 M02/M04 A3028 RMK AO2 SLP266 T10171044 $
Loading
Personal Weather Stations






























Interactive Weather Map New forecast layout! Learn more

10-Day Weather Forecast

Advertisements
Track Severe Weather on mobile